createdAt,value
2024-02-07T00:01:52.312Z,100056.78
2024-02-07T00:04:19.130Z,100079.19
2024-02-07T00:06:45.838Z,100072.44
2024-02-07T00:09:12.419Z,100044.69
2024-02-07T00:11:38.958Z,100051.91
2024-02-07T00:14:06.781Z,100057.19
2024-02-07T00:16:33.349Z,100040.16
2024-02-07T00:19:00.019Z,100040.44
2024-02-07T00:21:26.958Z,100058.81
2024-02-07T00:23:53.469Z,100028.19
2024-02-07T00:26:20.326Z,100030.56
2024-02-07T00:28:46.949Z,100040.16
2024-02-07T00:31:13.565Z,100025.03
2024-02-07T00:33:40.156Z,100025.97
2024-02-07T00:36:06.816Z,100042.91
2024-02-07T00:38:33.333Z,100034.28
2024-02-07T00:41:00.234Z,100028.78
2024-02-07T00:43:26.817Z,100021.91
2024-02-07T00:45:55.761Z,100016.81
2024-02-07T00:48:22.670Z,100013.53
2024-02-07T00:50:49.155Z,100026.56
2024-02-07T00:53:15.642Z,100007.22
2024-02-07T00:55:42.233Z,100010.91
2024-02-07T00:58:10.124Z,100018.75
2024-02-07T01:00:36.723Z,100031.94
2024-02-07T01:03:03.418Z,100023.69
2024-02-07T01:05:29.998Z,100001.84
2024-02-07T01:07:56.580Z,100006.50
2024-02-07T01:10:23.136Z,100013.53
2024-02-07T01:12:49.769Z,100012.00
2024-02-07T01:15:16.316Z,100021.59
2024-02-07T01:17:42.884Z,100013.66
2024-02-07T01:20:11.838Z,99998.00
2024-02-07T01:22:39.049Z,100002.66
2024-02-07T01:25:06.707Z,99991.78
2024-02-07T01:27:33.355Z,99992.84
2024-02-07T01:29:59.969Z,99987.22
2024-02-07T01:32:26.523Z,99977.75
2024-02-07T01:34:53.905Z,99987.91
2024-02-07T01:37:21.467Z,99979.13
2024-02-07T01:39:48.019Z,99963.19
2024-02-07T01:42:14.655Z,99966.09
2024-02-07T01:44:41.378Z,99963.34
2024-02-07T01:47:14.004Z,99960.72
2024-02-07T01:49:50.144Z,99950.00
2024-02-07T01:52:26.439Z,99955.38
2024-02-07T01:54:56.795Z,99960.97
2024-02-07T01:57:24.357Z,99941.75
2024-02-07T01:59:50.981Z,99957.53
2024-02-07T02:02:19.030Z,99969.91
2024-02-07T02:04:46.643Z,99947.25
2024-02-07T02:07:13.340Z,99934.22
2024-02-07T02:09:40.442Z,99924.88
2024-02-07T02:12:09.159Z,99949.59
2024-02-07T02:14:35.687Z,99927.19
2024-02-07T02:17:02.223Z,99926.91
2024-02-07T02:19:28.905Z,99932.41
2024-02-07T02:22:10.849Z,99935.69
2024-02-07T02:24:50.244Z,99925.56
2024-02-07T02:27:44.819Z,99917.03
2024-02-07T02:30:22.769Z,99915.66
2024-02-07T02:32:50.653Z,99904.41
2024-02-07T02:35:21.148Z,99909.50
2024-02-07T02:37:49.479Z,99907.97
2024-02-07T02:40:16.311Z,99900.28
2024-02-07T02:42:42.828Z,99894.91
2024-02-07T02:45:09.505Z,99876.81
2024-02-07T02:47:36.040Z,99879.53
2024-02-07T02:50:02.777Z,99874.34
2024-02-07T02:52:30.299Z,99883.94
2024-02-07T02:54:57.879Z,99863.75
2024-02-07T02:57:24.927Z,99870.59
2024-02-07T02:59:52.006Z,99865.00
2024-02-07T03:02:21.436Z,99854.13
2024-02-07T03:04:51.180Z,99847.53
2024-02-07T03:07:37.860Z,99864.56
2024-02-07T03:10:06.109Z,99861.66
2024-02-07T03:12:37.054Z,99849.31
2024-02-07T03:15:03.957Z,99848.19
2024-02-07T03:17:30.521Z,99860.97
2024-02-07T03:19:57.172Z,99855.75
2024-02-07T03:22:23.843Z,99879.78
2024-02-07T03:24:56.875Z,99835.84
2024-02-07T03:27:24.433Z,99843.25
2024-02-07T03:29:50.940Z,99855.34
2024-02-07T03:32:19.762Z,99843.13
2024-02-07T03:34:46.370Z,99833.66
2024-02-07T03:37:12.922Z,99811.97
2024-02-07T03:39:39.444Z,99825.56
2024-02-07T03:42:07.929Z,99811.97
2024-02-07T03:44:34.409Z,99776.69
2024-02-07T03:47:01.098Z,99811.84
2024-02-07T03:49:27.743Z,99815.13
2024-02-07T03:51:54.306Z,99827.91
2024-02-07T03:54:21.353Z,99805.94
2024-02-07T03:56:47.835Z,99807.06
2024-02-07T03:59:14.413Z,99812.13
2024-02-07T04:01:41.126Z,99815.28
2024-02-07T04:04:09.702Z,99791.81
2024-02-07T04:06:37.525Z,99796.22
2024-02-07T04:09:07.637Z,99788.50
2024-02-07T04:11:34.299Z,99781.66
2024-02-07T04:14:00.879Z,99773.97
2024-02-07T04:16:46.239Z,99765.16
2024-02-07T04:19:31.109Z,99768.72
2024-02-07T04:22:16.118Z,99792.19
2024-02-07T04:25:01.368Z,99784.38
2024-02-07T04:27:46.285Z,99797.69
2024-02-07T04:30:31.827Z,99799.50
2024-02-07T04:33:16.872Z,99809.94
2024-02-07T04:36:02.212Z,99828.72
2024-02-07T04:38:46.968Z,99860.97
2024-02-07T04:41:31.897Z,99890.41
2024-02-07T04:44:16.857Z,99830.09
2024-02-07T04:47:01.986Z,99874.19
2024-02-07T04:49:47.402Z,99896.09
2024-02-07T04:52:32.524Z,99891.97
2024-02-07T04:55:17.621Z,99900.00
2024-02-07T04:58:02.760Z,99901.59
2024-02-07T05:00:47.807Z,99902.00
2024-02-07T05:03:32.794Z,99911.53
2024-02-07T05:06:17.900Z,99915.25
2024-02-07T05:09:03.250Z,99905.03
2024-02-07T05:11:48.161Z,99916.03
2024-02-07T05:14:33.126Z,99913.72
2024-02-07T05:16:59.735Z,99926.47
2024-02-07T05:19:26.374Z,99936.81
2024-02-07T05:21:53.081Z,99935.28
2024-02-07T05:24:19.605Z,99944.81
2024-02-07T05:26:46.123Z,99942.88
2024-02-07T05:29:17.150Z,99937.88
2024-02-07T05:31:43.757Z,99940.69
2024-02-07T05:34:10.805Z,99948.38
2024-02-07T05:36:38.038Z,99970.59
2024-02-07T05:39:04.529Z,99965.44
2024-02-07T05:41:31.141Z,99971.06
2024-02-07T05:43:57.778Z,99962.53
2024-02-07T05:46:24.382Z,99955.69
2024-02-07T05:48:51.088Z,99963.59
2024-02-07T05:51:24.392Z,99970.44
2024-02-07T05:53:51.093Z,99967.22
2024-02-07T05:56:17.864Z,99975.16
2024-02-07T05:58:44.601Z,99960.88
2024-02-07T06:01:13.001Z,99971.97
2024-02-07T06:03:39.630Z,99973.63
2024-02-07T06:06:07.545Z,99982.44
2024-02-07T06:08:34.612Z,99973.94
2024-02-07T06:11:01.343Z,99977.44
2024-02-07T06:13:28.079Z,99950.19
2024-02-07T06:15:54.783Z,99982.44
2024-02-07T06:18:21.389Z,99987.69
2024-02-07T06:20:48.069Z,99999.63
2024-02-07T06:23:14.628Z,99997.03
2024-02-07T06:25:41.724Z,99993.91
2024-02-07T06:28:08.368Z,99996.63
2024-02-07T06:30:34.882Z,99997.56
2024-02-07T06:33:01.513Z,99996.19
2024-02-07T06:35:28.107Z,99990.09
2024-02-07T06:37:54.706Z,99987.06
2024-02-07T06:40:21.422Z,100004.25
2024-02-07T06:42:48.067Z,100006.31
2024-02-07T06:45:14.788Z,99994.31
2024-02-07T06:47:41.418Z,100006.41
2024-02-07T06:50:08.363Z,100010.03
2024-02-07T06:52:34.942Z,100017.69
2024-02-07T06:55:01.446Z,100018.94
2024-02-07T06:57:28.018Z,100006.09
2024-02-07T06:59:54.612Z,100020.69
2024-02-07T07:02:21.174Z,100031.03
2024-02-07T07:04:47.814Z,100029.38
2024-02-07T07:07:14.414Z,100032.09
2024-02-07T07:09:41.042Z,100041.69
2024-02-07T07:12:08.001Z,100048.81
2024-02-07T07:14:40.181Z,100049.22
2024-02-07T07:17:07.312Z,100044.44
2024-02-07T07:19:33.919Z,100054.50
2024-02-07T07:22:00.441Z,100050.34
2024-02-07T07:24:26.952Z,100065.13
2024-02-07T07:26:53.468Z,100079.09
2024-02-07T07:29:19.994Z,100075.97
2024-02-07T07:31:46.606Z,100080.31
2024-02-07T07:34:13.342Z,100086.13
2024-02-07T07:36:40.166Z,100081.22
2024-02-07T07:39:07.329Z,100087.06
2024-02-07T07:41:34.930Z,100089.19
2024-02-07T07:44:01.721Z,100093.44
2024-02-07T07:46:28.402Z,100093.63
2024-02-07T07:48:55.089Z,100102.31
2024-02-07T07:51:21.874Z,100099.63
2024-02-07T07:53:49.309Z,100109.78
2024-02-07T07:56:16.441Z,100110.25
2024-02-07T07:58:52.090Z,100108.78
2024-02-07T08:01:24.275Z,100106.19
2024-02-07T08:03:52.626Z,100113.22
2024-02-07T08:06:19.296Z,100115.81
2024-02-07T08:08:46.183Z,100118.41
2024-02-07T08:11:12.837Z,100110.91
2024-02-07T08:13:39.364Z,100113.41
2024-02-07T08:16:06.411Z,100123.66
2024-02-07T08:18:34.606Z,100126.16
2024-02-07T08:21:01.360Z,100122.56
2024-02-07T08:23:28.350Z,100125.06
2024-02-07T08:25:55.020Z,100123.75
2024-02-07T08:28:21.833Z,100115.38
2024-02-07T08:30:48.392Z,100121.47
2024-02-07T08:33:15.235Z,100126.53
2024-02-07T08:35:42.228Z,100126.53
2024-02-07T08:38:08.950Z,100119.69
2024-02-07T08:40:35.803Z,100116.19
2024-02-07T08:43:04.525Z,100122.28
2024-02-07T08:45:31.155Z,100116.84
2024-02-07T08:47:57.806Z,100131.69
2024-02-07T08:50:24.421Z,100135.69
2024-02-07T08:52:51.123Z,100136.34
2024-02-07T08:55:17.877Z,100137.88
2024-02-07T08:57:44.497Z,100155.97
2024-02-07T09:00:11.927Z,100161.91
2024-02-07T09:02:38.588Z,100144.28
2024-02-07T09:05:06.361Z,100167.28
2024-02-07T09:07:33.475Z,100154.44
2024-02-07T09:10:00.772Z,100155.88
2024-02-07T09:12:28.514Z,100154.06
2024-02-07T09:14:57.249Z,100153.94
2024-02-07T09:17:25.041Z,100166.44
2024-02-07T09:19:52.026Z,100159.59
2024-02-07T09:22:18.711Z,100162.91
2024-02-07T09:24:45.335Z,100155.88
2024-02-07T09:27:12.702Z,100158.09
2024-02-07T09:29:39.298Z,100165.69
2024-02-07T09:32:06.198Z,100160.25
2024-02-07T09:34:32.920Z,100157.00
2024-02-07T09:36:59.519Z,100166.25
2024-02-07T09:39:26.110Z,100163.41
2024-02-07T09:41:55.299Z,100166.16
2024-02-07T09:44:24.029Z,100171.44
2024-02-07T09:46:55.026Z,100172.34
2024-02-07T09:49:25.848Z,100172.16
2024-02-07T09:51:53.317Z,100174.75
2024-02-07T09:54:20.659Z,100185.81
2024-02-07T09:56:48.094Z,100181.50
2024-02-07T09:59:17.072Z,100181.84
2024-02-07T10:01:47.338Z,100197.94
2024-02-07T10:04:24.116Z,100203.91
2024-02-07T10:06:51.536Z,100205.50
2024-02-07T10:09:18.398Z,100222.75
2024-02-07T10:11:47.364Z,100182.66
2024-02-07T10:14:14.640Z,100192.81
2024-02-07T10:16:41.164Z,100225.72
2024-02-07T10:19:07.797Z,100233.38
2024-02-07T10:21:37.455Z,100228.13
2024-02-07T10:24:05.104Z,100234.03
2024-02-07T10:26:31.962Z,100212.03
2024-02-07T10:29:03.095Z,100224.78
2024-02-07T10:31:30.275Z,100206.59
2024-02-07T10:33:59.528Z,100219.25
2024-02-07T10:36:26.769Z,100214.22
2024-02-07T10:39:00.894Z,100213.91
2024-02-07T10:41:27.641Z,100192.28
2024-02-07T10:43:54.261Z,100197.72
2024-02-07T10:46:20.910Z,100194.22
2024-02-07T10:48:49.448Z,100184.75
2024-02-07T10:51:16.155Z,100205.22
2024-02-07T10:53:43.496Z,100186.53
2024-02-07T10:56:14.901Z,100179.59
2024-02-07T10:58:42.157Z,100206.56
2024-02-07T11:01:09.304Z,100212.31
2024-02-07T11:03:36.409Z,100204.09
2024-02-07T11:06:03.428Z,100206.53
2024-02-07T11:08:30.868Z,100210.78
2024-02-07T11:11:02.212Z,100207.53
2024-02-07T11:13:29.478Z,100204.84
2024-02-07T11:15:56.360Z,100192.56
2024-02-07T11:18:22.934Z,100184.22
2024-02-07T11:20:51.585Z,100186.81
2024-02-07T11:23:24.178Z,100173.56
2024-02-07T11:25:52.870Z,100147.28
2024-02-07T11:28:20.595Z,100176.06
2024-02-07T11:30:50.481Z,100172.72
2024-02-07T11:33:19.769Z,100182.13
2024-02-07T11:35:46.388Z,100180.19
2024-02-07T11:38:13.270Z,100179.19
2024-02-07T11:40:42.150Z,100169.31
2024-02-07T11:43:11.149Z,100145.47
2024-02-07T11:45:41.346Z,100171.72
2024-02-07T11:48:25.106Z,100161.72
2024-02-07T11:50:52.390Z,100174.63
2024-02-07T11:53:20.554Z,100174.63
2024-02-07T11:55:48.455Z,100159.91
2024-02-07T11:58:21.822Z,100150.84
2024-02-07T12:00:50.198Z,100151.25
2024-02-07T12:03:17.842Z,100128.53
2024-02-07T12:05:44.778Z,100135.38
2024-02-07T12:08:14.103Z,100119.31
2024-02-07T12:10:41.013Z,100117.28
2024-02-07T12:13:10.970Z,100121.72
2024-02-07T12:15:38.150Z,100120.53
2024-02-07T12:18:06.206Z,100116.22
2024-02-07T12:20:32.997Z,100118.06
2024-02-07T12:23:01.125Z,100122.59
2024-02-07T12:25:28.137Z,100114.41
2024-02-07T12:27:55.689Z,100096.50
2024-02-07T12:30:22.267Z,100124.13
2024-02-07T12:32:48.917Z,100120.78
2024-02-07T12:35:15.664Z,100127.84
2024-02-07T12:37:42.314Z,100115.94
2024-02-07T12:40:14.692Z,100107.75
2024-02-07T12:42:41.423Z,100101.22
2024-02-07T12:45:11.261Z,100110.38
2024-02-07T12:47:38.061Z,100108.63
2024-02-07T12:50:05.397Z,100102.81
2024-02-07T12:52:32.143Z,100101.16
2024-02-07T12:54:58.906Z,100105.00
2024-02-07T12:57:26.327Z,100113.41
2024-02-07T12:59:54.448Z,100117.84
2024-02-07T13:02:21.405Z,100127.16
2024-02-07T13:04:48.603Z,100134.75
2024-02-07T13:07:16.873Z,100132.09
2024-02-07T13:09:45.556Z,100145.09
2024-02-07T13:12:19.430Z,100143.75
2024-02-07T13:14:54.464Z,100152.56
2024-02-07T13:17:21.004Z,100137.38
2024-02-07T13:19:47.675Z,100133.25
2024-02-07T13:22:15.783Z,100130.09
2024-02-07T13:24:43.116Z,100130.94
2024-02-07T13:27:09.898Z,100136.94
2024-02-07T13:29:42.215Z,100123.00
2024-02-07T13:32:13.985Z,100130.19
2024-02-07T13:34:42.996Z,100135.16
2024-02-07T13:37:09.793Z,100110.97
2024-02-07T13:39:37.213Z,100125.56
2024-02-07T13:42:04.125Z,100092.50
2024-02-07T13:44:30.647Z,100123.16
2024-02-07T13:46:58.181Z,100116.41
2024-02-07T13:49:24.938Z,100109.97
2024-02-07T13:51:51.813Z,100100.59
2024-02-07T13:54:18.374Z,100110.81
2024-02-07T13:56:44.878Z,100109.34
2024-02-07T13:59:12.076Z,100099.56
2024-02-07T14:01:41.711Z,100094.94
2024-02-07T14:04:08.770Z,100093.94
2024-02-07T14:06:35.358Z,100089.78
2024-02-07T14:09:01.941Z,100096.44
2024-02-07T14:11:28.499Z,100087.38
2024-02-07T14:13:55.242Z,100093.84
2024-02-07T14:16:22.044Z,100085.84
2024-02-07T14:18:48.754Z,100086.94
2024-02-07T14:21:15.400Z,100089.16
2024-02-07T14:23:41.964Z,100072.44
2024-02-07T14:26:09.027Z,100075.47
2024-02-07T14:28:35.702Z,100069.09
2024-02-07T14:31:02.290Z,100075.19
2024-02-07T14:33:29.031Z,100066.28
2024-02-07T14:35:55.865Z,100072.81
2024-02-07T14:38:24.320Z,100066.34
2024-02-07T14:40:51.048Z,100071.81
2024-02-07T14:43:18.011Z,100081.03
2024-02-07T14:45:44.632Z,100076.31
2024-02-07T14:48:11.448Z,100073.38
2024-02-07T14:50:41.483Z,100066.81
2024-02-07T14:53:08.470Z,100070.97
2024-02-07T14:55:35.321Z,100065.59
2024-02-07T14:58:01.960Z,100054.44
2024-02-07T15:00:28.531Z,100064.41
2024-02-07T15:02:55.481Z,100051.66
2024-02-07T15:05:23.359Z,100032.03
2024-02-07T15:07:51.244Z,100049.63
2024-02-07T15:10:18.195Z,100053.44
2024-02-07T15:12:44.966Z,100036.06
2024-02-07T15:15:11.862Z,100038.47
2024-02-07T15:17:43.339Z,100039.59
2024-02-07T15:20:10.901Z,100043.19
2024-02-07T15:22:37.723Z,100048.25
2024-02-07T15:25:05.281Z,100044.94
2024-02-07T15:27:31.974Z,100049.19
2024-02-07T15:29:58.617Z,100042.38
2024-02-07T15:32:25.318Z,100043.66
2024-02-07T15:34:51.960Z,100039.94
2024-02-07T15:37:18.648Z,100034.97
2024-02-07T15:39:45.298Z,100022.78
2024-02-07T15:42:12.034Z,100029.59
2024-02-07T15:44:40.723Z,100023.50
2024-02-07T15:47:07.368Z,100024.88
2024-02-07T15:49:34.155Z,100027.16
2024-02-07T15:52:00.720Z,100017.66
2024-02-07T15:54:27.288Z,100022.13
2024-02-07T15:57:01.063Z,100014.09
2024-02-07T15:59:27.653Z,100014.09
2024-02-07T16:01:55.436Z,100006.06
2024-02-07T16:04:22.739Z,100005.78
2024-02-07T16:06:49.589Z,100006.19
2024-02-07T16:09:17.555Z,100012.91
2024-02-07T16:11:44.370Z,100009.22
2024-02-07T16:14:11.720Z,99978.13
2024-02-07T16:16:42.257Z,100009.56
2024-02-07T16:19:09.327Z,100009.66
2024-02-07T16:21:35.913Z,100008.72
2024-02-07T16:24:02.427Z,100007.63
2024-02-07T16:26:29.026Z,99995.25
2024-02-07T16:28:55.708Z,99991.75
2024-02-07T16:31:22.476Z,99998.50
2024-02-07T16:33:49.146Z,99934.31
2024-02-07T16:36:16.340Z,100000.97
2024-02-07T16:38:43.110Z,99991.47
2024-02-07T16:41:10.756Z,99979.84
2024-02-07T16:43:37.636Z,99996.19
2024-02-07T16:46:04.536Z,99994.44
2024-02-07T16:48:31.183Z,99991.84
2024-02-07T16:50:57.893Z,99989.47
2024-02-07T16:53:24.437Z,99987.88
2024-02-07T16:55:51.811Z,99983.66
2024-02-07T16:58:18.772Z,99991.88
2024-02-07T17:00:47.400Z,99995.38
2024-02-07T17:03:14.166Z,99994.91
2024-02-07T17:05:41.711Z,99978.41
2024-02-07T17:08:08.464Z,99988.75
2024-02-07T17:10:35.234Z,99992.78
2024-02-07T17:13:01.978Z,99985.66
2024-02-07T17:15:28.572Z,99989.19
2024-02-07T17:17:56.956Z,99952.13
2024-02-07T17:20:24.431Z,99967.41
2024-02-07T17:22:51.533Z,99979.50
2024-02-07T17:25:18.470Z,99974.22
2024-02-07T17:27:45.231Z,99970.00
2024-02-07T17:30:18.396Z,99966.03
2024-02-07T17:32:52.199Z,99967.88
2024-02-07T17:35:19.058Z,99971.28
2024-02-07T17:37:45.758Z,99973.50
2024-02-07T17:40:12.607Z,99959.94
2024-02-07T17:42:39.211Z,99961.31
2024-02-07T17:45:06.013Z,99954.41
2024-02-07T17:47:32.654Z,99949.69
2024-02-07T17:49:59.309Z,99952.75
2024-02-07T17:52:25.943Z,99962.06
2024-02-07T17:54:52.548Z,99953.13
2024-02-07T17:57:19.144Z,99937.75
2024-02-07T17:59:45.686Z,99959.97
2024-02-07T18:02:12.933Z,99954.41
2024-02-07T18:04:39.644Z,99954.78
2024-02-07T18:07:07.340Z,99952.22
2024-02-07T18:09:34.068Z,99957.28
2024-02-07T18:12:02.931Z,99959.88
2024-02-07T18:14:29.494Z,99957.16
2024-02-07T18:16:56.130Z,99957.28
2024-02-07T18:19:22.853Z,99919.28
2024-02-07T18:21:49.776Z,99935.69
2024-02-07T18:24:19.249Z,99945.09
2024-02-07T18:26:48.246Z,99928.31
2024-02-07T18:29:15.465Z,99943.91
2024-02-07T18:31:42.162Z,99910.06
2024-02-07T18:34:09.452Z,99949.34
2024-02-07T18:36:38.057Z,99946.88
2024-02-07T18:39:05.595Z,99949.75
2024-02-07T18:41:33.340Z,99939.84
2024-02-07T18:44:00.249Z,99917.25
2024-02-07T18:46:27.002Z,99940.41
2024-02-07T18:48:53.705Z,99940.41
2024-02-07T18:51:22.521Z,99914.31
2024-02-07T18:53:49.020Z,99936.00
2024-02-07T18:56:15.667Z,99938.66
2024-02-07T18:58:42.317Z,99941.78
2024-02-07T19:01:09.020Z,99936.44
2024-02-07T19:03:40.323Z,99934.97
2024-02-07T19:06:10.095Z,99920.41
2024-02-07T19:08:36.869Z,99921.34
2024-02-07T19:11:03.619Z,99915.88
2024-02-07T19:13:30.406Z,99887.41
2024-02-07T19:15:56.998Z,99917.09
2024-02-07T19:18:23.761Z,99923.50
2024-02-07T19:20:50.447Z,99923.72
2024-02-07T19:23:16.965Z,99902.31
2024-02-07T19:25:44.033Z,99903.34
2024-02-07T19:28:10.702Z,99892.66
2024-02-07T19:30:37.589Z,99894.94
2024-02-07T19:33:04.669Z,99898.16
2024-02-07T19:35:31.325Z,99895.38
2024-02-07T19:37:58.099Z,99899.75
2024-02-07T19:40:24.857Z,99903.34
2024-02-07T19:42:51.473Z,99912.66
2024-02-07T19:45:18.130Z,99925.13
2024-02-07T19:47:44.760Z,99920.78
2024-02-07T19:50:15.113Z,99916.81
2024-02-07T19:52:42.694Z,99906.56
2024-02-07T19:55:09.567Z,99861.50
2024-02-07T19:57:36.159Z,99901.22
2024-02-07T20:00:02.851Z,99910.00
2024-02-07T20:02:29.580Z,99895.50
2024-02-07T20:04:56.257Z,99897.88
2024-02-07T20:07:23.037Z,99894.22
2024-02-07T20:09:49.604Z,99907.41
2024-02-07T20:12:16.198Z,99908.88
2024-02-07T20:14:42.749Z,99911.56
2024-02-07T20:17:09.731Z,99913.09
2024-02-07T20:19:36.796Z,99907.31
2024-02-07T20:22:06.384Z,99913.31
2024-02-07T20:24:34.869Z,99909.63
2024-02-07T20:27:01.440Z,99897.44
2024-02-07T20:29:28.466Z,99902.97
2024-02-07T20:31:55.049Z,99889.25
2024-02-07T20:34:21.983Z,99904.91
2024-02-07T20:36:48.704Z,99893.84
2024-02-07T20:39:15.222Z,99894.41
2024-02-07T20:41:45.462Z,99883.72
2024-02-07T20:44:22.532Z,99897.09
2024-02-07T20:46:49.684Z,99882.22
2024-02-07T20:49:16.430Z,99886.84
2024-02-07T20:51:46.073Z,99888.50
2024-02-07T20:54:12.661Z,99886.75
2024-02-07T20:56:39.510Z,99877.44
2024-02-07T20:59:06.216Z,99892.56
2024-02-07T21:01:32.967Z,99884.97
2024-02-07T21:03:59.530Z,99888.22
2024-02-07T21:06:29.302Z,99879.34
2024-02-07T21:08:56.997Z,99878.50
2024-02-07T21:11:24.755Z,99881.94
2024-02-07T21:13:51.549Z,99871.50
2024-02-07T21:16:18.120Z,99864.50
2024-02-07T21:18:44.687Z,99856.28
2024-02-07T21:21:16.347Z,99816.31
2024-02-07T21:23:43.256Z,99840.94
2024-02-07T21:26:10.156Z,99851.91
2024-02-07T21:28:37.212Z,99850.25
2024-02-07T21:31:03.975Z,99836.34
2024-02-07T21:33:30.841Z,99861.66
2024-02-07T21:35:57.774Z,99873.41
2024-02-07T21:38:24.468Z,99855.41
2024-02-07T21:40:52.014Z,99853.84
2024-02-07T21:43:18.687Z,99845.81
2024-02-07T21:45:45.539Z,99839.81
2024-02-07T21:48:12.496Z,99844.59
2024-02-07T21:50:39.042Z,99843.06
2024-02-07T21:53:05.708Z,99856.41
2024-02-07T21:55:32.289Z,99855.56
2024-02-07T21:57:58.965Z,99858.06
2024-02-07T22:00:25.495Z,99857.13
2024-02-07T22:02:52.093Z,99856.25
2024-02-07T22:05:18.805Z,99868.59
2024-02-07T22:07:45.588Z,99870.53
2024-02-07T22:10:12.144Z,99875.50
2024-02-07T22:12:38.669Z,99889.13
2024-02-07T22:15:05.711Z,99891.63
2024-02-07T22:17:32.248Z,99892.56
2024-02-07T22:19:58.873Z,99903.81
2024-02-07T22:22:25.925Z,99913.75
2024-02-07T22:24:52.560Z,99906.00
2024-02-07T22:27:19.125Z,99908.50
2024-02-07T22:29:45.708Z,99899.75
2024-02-07T22:32:13.403Z,99894.56
2024-02-07T22:34:40.283Z,99891.06
2024-02-07T22:37:09.575Z,99873.06
2024-02-07T22:39:36.264Z,99874.84
2024-02-07T22:42:03.503Z,99867.47
2024-02-07T22:44:31.266Z,99869.13
2024-02-07T22:46:57.915Z,99875.94
2024-02-07T22:49:24.667Z,99873.47
2024-02-07T22:51:53.403Z,99862.22
2024-02-07T22:54:20.332Z,99862.09
2024-02-07T22:56:47.165Z,99859.72
2024-02-07T22:59:13.876Z,99860.72
2024-02-07T23:01:40.663Z,99848.38
2024-02-07T23:04:08.191Z,99850.31
2024-02-07T23:06:37.395Z,99842.00
2024-02-07T23:09:05.185Z,99840.91
2024-02-07T23:11:31.965Z,99825.69
2024-02-07T23:13:59.407Z,99840.25
2024-02-07T23:16:26.149Z,99843.56
2024-02-07T23:18:52.710Z,99838.41
2024-02-07T23:21:19.298Z,99853.53
2024-02-07T23:23:45.855Z,99846.59
2024-02-07T23:26:12.484Z,99848.25
2024-02-07T23:28:39.060Z,99849.00
2024-02-07T23:31:05.560Z,99839.47
2024-02-07T23:33:32.142Z,99851.75
2024-02-07T23:36:00.742Z,99857.56
2024-02-07T23:38:27.341Z,99863.50
2024-02-07T23:40:53.935Z,99860.06
2024-02-07T23:43:20.514Z,99853.31
2024-02-07T23:45:47.005Z,99864.50
2024-02-07T23:48:13.715Z,99860.06
2024-02-07T23:50:40.355Z,99873.53
2024-02-07T23:53:06.923Z,99871.75
2024-02-07T23:55:33.520Z,99872.69
2024-02-07T23:58:00.103Z,99862.34
